メインページ
METAR-TAF:

METAR-TAF

空港 :

イサカ, ニューヨーク, アメリカ合衆国

緯度: 42-29N, 経度: 076-27W, 海抜: 335m

現時点の気象観測

当レポートは41分前の01:56(UTC)に作成
北西の風 16kt、最大21ktの突風を伴う
気温 -2°C
湿度 80%
気圧 1021 hPa
視程: 16.1km
高度2600ftの千切れ雲あり
高度4100ftの曇り

METAR: KITH 070156Z 31016G21KT 10SM BKN026 OVC041 M02/M05 A3014 RMK AO2 SNE31 SLP219 P0000 T10221050

時間: 21:37 (02:37 UTC)

予報

当レポートは1時間30分前の01:07(UTC)に作成
予報は07日の 01時(UTC)から 07日の 24時(UTC)まで有効
北西の風 10kt
視程: 10km
高度1500ftの雲は散在している
高度2500ftの曇り
弱いにわか雪
07日の 01時(UTC)から 07日の 04時(UTC)まで一時的に
視程: 4.8km
高度1500ftの曇り
弱いにわか雪, 靄
07日の 0400時(UTC)から
北西の風 7kt
視程: 10km
高度1500ftの千切れ雲あり
高度2500ftの曇り
弱いにわか雪
07日の 1200時(UTC)から
西/北西の風 8kt
視程: 10km
高度2500ftの曇り
07日の 1900時(UTC)から
北西の風 8kt
視程: 10km
高度2500ftの雲は散在している

TAF: KITH 070107Z 0701/0724 32010KT P6SM -SHSN SCT015 OVC025 TEMPO 0701/0704 3SM -SHSN BR OVC015 FM070400 31007KT P6SM -SHSN BKN015 OVC025 FM071200 30008KT P6SM OVC025 FM071900 31008KT P6SM SCT025

4,000以上の空港の気象観測と天気予報(METAR報とTAF報)

利用可能な観測所は地図上に黄色い丸と赤い丸で示す。

丸の上にカーソルを重ねると観測所名を参照できる。

次にクリックすると気象観測と天気予報を参照できる。

マップの切り替え:黒色「×」印の緑ボタンをクリックして拡大、「-」印の緑ボタンをクリックして縮小、緑色の三角印をクリックして隣りの地図に切り替え


METAR-TAF: